Terminal Aerodrome Forecast
Issued by NWS

Home | Current Version | Previous Version | Text Only | Print | Product List | Glossary On
Versions: 1 2 3 4 5 6 7 8 9 10 11 12 13 14 15
494
FTUS44 KLZK 241737
TAFLIT
TAF
KLIT 241737Z 2418/2518 19008G16KT P6SM SCT030
     FM242100 18012KT P6SM VCTS BKN040CB
     FM250100 16008KT P6SM SCT100 BKN250
     FM251000 18008KT 6SM BR OVC015
     FM251500 19009KT P6SM BKN035=

USA.gov is the U.S. government's official web portal to all federal, state and local government web resources and services.